sensor_id;sensor_type;location;lat;lon;timestamp;temperature;humidity
418;DHT22;49;48.530;9.200;2022-10-15T00:00:23;20.80;80.90
418;DHT22;49;48.530;9.200;2022-10-15T00:02:50;20.90;79.20
418;DHT22;49;48.530;9.200;2022-10-15T00:05:18;21.00;79.40
418;DHT22;49;48.530;9.200;2022-10-15T00:07:45;21.20;77.30
418;DHT22;49;48.530;9.200;2022-10-15T00:10:26;21.00;78.80
418;DHT22;49;48.530;9.200;2022-10-15T00:12:53;20.80;78.80
418;DHT22;49;48.530;9.200;2022-10-15T00:15:20;20.50;82.80
418;DHT22;49;48.530;9.200;2022-10-15T00:17:47;20.40;81.40
418;DHT22;49;48.530;9.200;2022-10-15T00:20:14;20.50;82.60
418;DHT22;49;48.530;9.200;2022-10-15T00:22:42;20.40;82.90
418;DHT22;49;48.530;9.200;2022-10-15T00:25:14;20.20;85.30
418;DHT22;49;48.530;9.200;2022-10-15T00:27:41;20.00;86.70
418;DHT22;49;48.530;9.200;2022-10-15T00:30:09;19.90;87.20
418;DHT22;49;48.530;9.200;2022-10-15T00:32:36;20.30;83.70
418;DHT22;49;48.530;9.200;2022-10-15T00:35:04;20.60;80.90
418;DHT22;49;48.530;9.200;2022-10-15T00:37:31;20.90;81.20
418;DHT22;49;48.530;9.200;2022-10-15T00:39:59;21.00;81.10
418;DHT22;49;48.530;9.200;2022-10-15T00:42:26;21.00;80.00
418;DHT22;49;48.530;9.200;2022-10-15T00:44:55;21.10;78.50
418;DHT22;49;48.530;9.200;2022-10-15T00:47:26;20.90;81.00
418;DHT22;49;48.530;9.200;2022-10-15T00:49:58;20.60;83.50
418;DHT22;49;48.530;9.200;2022-10-15T00:52:31;20.00;87.00
418;DHT22;49;48.530;9.200;2022-10-15T00:55:05;19.80;88.80
418;DHT22;49;48.530;9.200;2022-10-15T00:57:32;19.90;87.50
418;DHT22;49;48.530;9.200;2022-10-15T01:00:03;20.20;86.90
418;DHT22;49;48.530;9.200;2022-10-15T01:02:30;20.20;86.60
418;DHT22;49;48.530;9.200;2022-10-15T01:04:57;20.50;84.10
418;DHT22;49;48.530;9.200;2022-10-15T01:07:24;20.50;85.50
418;DHT22;49;48.530;9.200;2022-10-15T01:09:51;20.40;86.30
418;DHT22;49;48.530;9.200;2022-10-15T01:12:27;20.10;87.60
418;DHT22;49;48.530;9.200;2022-10-15T01:15:03;20.40;86.30
418;DHT22;49;48.530;9.200;2022-10-15T01:17:39;20.40;86.60
418;DHT22;49;48.530;9.200;2022-10-15T01:20:34;20.30;86.40
418;DHT22;49;48.530;9.200;2022-10-15T01:23:25;20.10;88.10
418;DHT22;49;48.530;9.200;2022-10-15T01:26:09;19.80;90.00
418;DHT22;49;48.530;9.200;2022-10-15T01:28:47;19.70;90.20
418;DHT22;49;48.530;9.200;2022-10-15T01:31:22;19.40;91.20
418;DHT22;49;48.530;9.200;2022-10-15T01:33:59;19.40;91.80
418;DHT22;49;48.530;9.200;2022-10-15T01:36:31;19.90;89.80
418;DHT22;49;48.530;9.200;2022-10-15T01:39:09;20.00;90.20
418;DHT22;49;48.530;9.200;2022-10-15T01:41:41;19.80;90.50
418;DHT22;49;48.530;9.200;2022-10-15T01:44:13;20.10;88.80
418;DHT22;49;48.530;9.200;2022-10-15T01:46:45;20.40;86.30
418;DHT22;49;48.530;9.200;2022-10-15T01:49:16;20.60;86.90
418;DHT22;49;48.530;9.200;2022-10-15T01:51:47;20.70;85.30
418;DHT22;49;48.530;9.200;2022-10-15T01:54:16;20.70;86.60
418;DHT22;49;48.530;9.200;2022-10-15T01:56:46;20.60;86.40
418;DHT22;49;48.530;9.200;2022-10-15T01:59:15;20.60;87.10
418;DHT22;49;48.530;9.200;2022-10-15T02:01:45;20.70;85.30
418;DHT22;49;48.530;9.200;2022-10-15T02:04:20;20.80;83.00
418;DHT22;49;48.530;9.200;2022-10-15T02:06:51;20.70;86.60
418;DHT22;49;48.530;9.200;2022-10-15T02:09:28;19.90;90.30
418;DHT22;49;48.530;9.200;2022-10-15T02:12:06;19.60;91.50
418;DHT22;49;48.530;9.200;2022-10-15T02:14:41;19.10;92.90
418;DHT22;49;48.530;9.200;2022-10-15T02:17:13;19.00;93.80
418;DHT22;49;48.530;9.200;2022-10-15T02:19:45;18.90;94.50
418;DHT22;49;48.530;9.200;2022-10-15T02:22:17;18.50;95.60
418;DHT22;49;48.530;9.200;2022-10-15T02:24:50;18.10;97.10
418;DHT22;49;48.530;9.200;2022-10-15T02:27:19;18.00;98.40
418;DHT22;49;48.530;9.200;2022-10-15T02:29:49;18.10;98.50
418;DHT22;49;48.530;9.200;2022-10-15T02:32:19;18.20;97.70
418;DHT22;49;48.530;9.200;2022-10-15T02:34:48;17.90;98.60
418;DHT22;49;48.530;9.200;2022-10-15T02:37:16;18.10;98.70
418;DHT22;49;48.530;9.200;2022-10-15T02:39:45;18.10;98.70
418;DHT22;49;48.530;9.200;2022-10-15T02:42:13;18.60;97.60
418;DHT22;49;48.530;9.200;2022-10-15T02:44:40;18.80;96.80
418;DHT22;49;48.530;9.200;2022-10-15T02:47:07;19.40;95.30
418;DHT22;49;48.530;9.200;2022-10-15T02:49:35;19.40;95.40
418;DHT22;49;48.530;9.200;2022-10-15T02:52:02;19.30;95.50
418;DHT22;49;48.530;9.200;2022-10-15T02:54:29;18.80;96.90
418;DHT22;49;48.530;9.200;2022-10-15T02:56:56;18.80;97.10
418;DHT22;49;48.530;9.200;2022-10-15T02:59:23;19.20;95.90
418;DHT22;49;48.530;9.200;2022-10-15T03:01:50;19.10;95.80
418;DHT22;49;48.530;9.200;2022-10-15T03:04:17;18.80;96.80
418;DHT22;49;48.530;9.200;2022-10-15T03:06:45;18.80;97.30
418;DHT22;49;48.530;9.200;2022-10-15T03:09:12;19.00;96.60
418;DHT22;49;48.530;9.200;2022-10-15T03:11:39;19.20;95.90
418;DHT22;49;48.530;9.200;2022-10-15T03:14:06;19.60;95.40
418;DHT22;49;48.530;9.200;2022-10-15T03:16:33;19.00;96.30
418;DHT22;49;48.530;9.200;2022-10-15T03:19:00;18.90;96.50
418;DHT22;49;48.530;9.200;2022-10-15T03:21:26;18.70;97.20
418;DHT22;49;48.530;9.200;2022-10-15T03:23:56;18.60;97.30
418;DHT22;49;48.530;9.200;2022-10-15T03:26:23;18.60;97.90
418;DHT22;49;48.530;9.200;2022-10-15T03:28:50;18.50;98.20
418;DHT22;49;48.530;9.200;2022-10-15T03:31:17;18.60;97.50
418;DHT22;49;48.530;9.200;2022-10-15T03:33:45;18.50;98.10
418;DHT22;49;48.530;9.200;2022-10-15T03:36:12;18.70;97.50
418;DHT22;49;48.530;9.200;2022-10-15T03:38:38;18.20;98.50
418;DHT22;49;48.530;9.200;2022-10-15T03:41:07;17.90;99.40
418;DHT22;49;48.530;9.200;2022-10-15T03:43:34;17.90;99.70
418;DHT22;49;48.530;9.200;2022-10-15T03:46:01;17.80;99.90
418;DHT22;49;48.530;9.200;2022-10-15T03:48:30;17.70;99.90
418;DHT22;49;48.530;9.200;2022-10-15T03:50:56;17.60;99.90
418;DHT22;49;48.530;9.200;2022-10-15T03:53:23;17.60;99.90
418;DHT22;49;48.530;9.200;2022-10-15T03:55:50;17.70;99.90
418;DHT22;49;48.530;9.200;2022-10-15T03:58:19;17.80;99.90
418;DHT22;49;48.530;9.200;2022-10-15T04:00:45;17.70;99.90
418;DHT22;49;48.530;9.200;2022-10-15T04:03:13;17.70;99.90
418;DHT22;49;48.530;9.200;2022-10-15T04:05:40;17.90;99.90
418;DHT22;49;48.530;9.200;2022-10-15T04:08:07;18.20;99.80
418;DHT22;49;48.530;9.200;2022-10-15T04:10:34;18.30;99.40
418;DHT22;49;48.530;9.200;2022-10-15T04:13:01;18.40;98.80
418;DHT22;49;48.530;9.200;2022-10-15T04:15:29;18.60;98.40
418;DHT22;49;48.530;9.200;2022-10-15T04:17:56;18.30;98.80
418;DHT22;49;48.530;9.200;2022-10-15T04:20:23;18.20;99.60
418;DHT22;49;48.530;9.200;2022-10-15T04:22:50;18.10;99.70
418;DHT22;49;48.530;9.200;2022-10-15T04:25:17;18.20;99.40
418;DHT22;49;48.530;9.200;2022-10-15T04:27:44;18.30;99.20
418;DHT22;49;48.530;9.200;2022-10-15T04:30:12;18.80;97.80
418;DHT22;49;48.530;9.200;2022-10-15T04:32:41;18.60;97.60
418;DHT22;49;48.530;9.200;2022-10-15T04:35:08;18.30;98.60
418;DHT22;49;48.530;9.200;2022-10-15T04:37:35;18.30;98.80
418;DHT22;49;48.530;9.200;2022-10-15T04:40:06;18.60;98.30
418;DHT22;49;48.530;9.200;2022-10-15T04:42:33;18.70;97.80
418;DHT22;49;48.530;9.200;2022-10-15T04:45:00;18.40;98.50
418;DHT22;49;48.530;9.200;2022-10-15T04:47:27;18.30;98.70
418;DHT22;49;48.530;9.200;2022-10-15T04:49:56;18.30;98.80
418;DHT22;49;48.530;9.200;2022-10-15T04:52:23;18.30;98.80
418;DHT22;49;48.530;9.200;2022-10-15T04:54:50;18.30;98.50
418;DHT22;49;48.530;9.200;2022-10-15T04:57:16;18.20;98.80
418;DHT22;49;48.530;9.200;2022-10-15T04:59:44;18.20;98.80
418;DHT22;49;48.530;9.200;2022-10-15T05:02:11;18.30;98.40
418;DHT22;49;48.530;9.200;2022-10-15T05:04:37;18.50;97.90
418;DHT22;49;48.530;9.200;2022-10-15T05:07:06;18.50;97.70
418;DHT22;49;48.530;9.200;2022-10-15T05:09:33;18.10;98.70
418;DHT22;49;48.530;9.200;2022-10-15T05:11:59;18.20;98.60
418;DHT22;49;48.530;9.200;2022-10-15T05:14:26;18.30;98.70
418;DHT22;49;48.530;9.200;2022-10-15T05:16:54;18.00;99.00
418;DHT22;49;48.530;9.200;2022-10-15T05:19:21;18.00;99.10
418;DHT22;49;48.530;9.200;2022-10-15T05:21:47;18.00;99.10
418;DHT22;49;48.530;9.200;2022-10-15T05:24:16;18.00;99.20
418;DHT22;49;48.530;9.200;2022-10-15T05:26:43;17.90;99.30
418;DHT22;49;48.530;9.200;2022-10-15T05:29:09;18.00;99.30
418;DHT22;49;48.530;9.200;2022-10-15T05:31:36;18.20;98.80
418;DHT22;49;48.530;9.200;2022-10-15T05:34:06;18.10;98.70
418;DHT22;49;48.530;9.200;2022-10-15T05:36:33;18.00;99.00
418;DHT22;49;48.530;9.200;2022-10-15T05:39:03;17.80;99.50
418;DHT22;49;48.530;9.200;2022-10-15T05:41:33;18.00;99.00
418;DHT22;49;48.530;9.200;2022-10-15T05:43:59;17.60;99.90
418;DHT22;49;48.530;9.200;2022-10-15T05:46:27;17.60;99.90
418;DHT22;49;48.530;9.200;2022-10-15T05:48:55;17.50;99.90
418;DHT22;49;48.530;9.200;2022-10-15T05:51:23;17.50;99.90
418;DHT22;49;48.530;9.200;2022-10-15T05:53:51;17.80;99.80
418;DHT22;49;48.530;9.200;2022-10-15T05:56:19;17.70;99.90
418;DHT22;49;48.530;9.200;2022-10-15T05:58:48;17.70;99.90
418;DHT22;49;48.530;9.200;2022-10-15T06:01:15;17.50;99.90
418;DHT22;49;48.530;9.200;2022-10-15T06:03:42;17.50;99.90
418;DHT22;49;48.530;9.200;2022-10-15T06:06:14;17.60;99.90
418;DHT22;49;48.530;9.200;2022-10-15T06:08:42;17.70;99.90
418;DHT22;49;48.530;9.200;2022-10-15T06:11:08;17.70;99.90
418;DHT22;49;48.530;9.200;2022-10-15T06:13:38;17.80;99.60
418;DHT22;49;48.530;9.200;2022-10-15T06:16:07;18.00;99.60
418;DHT22;49;48.530;9.200;2022-10-15T06:18:34;18.10;99.10
418;DHT22;49;48.530;9.200;2022-10-15T06:21:02;18.50;98.20
418;DHT22;49;48.530;9.200;2022-10-15T06:23:29;18.00;98.90
418;DHT22;49;48.530;9.200;2022-10-15T06:25:56;18.00;99.10
418;DHT22;49;48.530;9.200;2022-10-15T06:28:28;17.90;99.80
418;DHT22;49;48.530;9.200;2022-10-15T06:31:12;17.90;99.90
418;DHT22;49;48.530;9.200;2022-10-15T06:33:39;18.30;98.80
418;DHT22;49;48.530;9.200;2022-10-15T06:36:08;18.20;98.80
418;DHT22;49;48.530;9.200;2022-10-15T06:38:35;18.10;99.20
418;DHT22;49;48.530;9.200;2022-10-15T06:41:04;18.10;99.10
418;DHT22;49;48.530;9.200;2022-10-15T06:43:31;18.10;99.40
418;DHT22;49;48.530;9.200;2022-10-15T06:45:59;18.00;99.40
418;DHT22;49;48.530;9.200;2022-10-15T06:48:27;18.00;99.90
418;DHT22;49;48.530;9.200;2022-10-15T06:50:56;18.20;99.30
418;DHT22;49;48.530;9.200;2022-10-15T06:53:23;18.20;99.50
418;DHT22;49;48.530;9.200;2022-10-15T06:55:50;18.40;98.80
418;DHT22;49;48.530;9.200;2022-10-15T06:58:18;18.30;98.80
418;DHT22;49;48.530;9.200;2022-10-15T07:00:45;18.30;99.10
418;DHT22;49;48.530;9.200;2022-10-15T07:03:12;18.10;99.80
418;DHT22;49;48.530;9.200;2022-10-15T07:05:40;17.90;99.90
418;DHT22;49;48.530;9.200;2022-10-15T07:08:07;17.80;99.90
418;DHT22;49;48.530;9.200;2022-10-15T07:10:34;17.90;99.90
418;DHT22;49;48.530;9.200;2022-10-15T07:13:01;18.30;99.90
418;DHT22;49;48.530;9.200;2022-10-15T07:15:28;18.60;99.60
418;DHT22;49;48.530;9.200;2022-10-15T07:17:55;18.50;99.70
418;DHT22;49;48.530;9.200;2022-10-15T07:20:26;18.30;99.90
418;DHT22;49;48.530;9.200;2022-10-15T07:22:57;18.30;99.90
418;DHT22;49;48.530;9.200;2022-10-15T07:25:24;18.60;99.60
418;DHT22;49;48.530;9.200;2022-10-15T07:27:51;18.40;99.90
418;DHT22;49;48.530;9.200;2022-10-15T07:30:20;18.40;99.90
418;DHT22;49;48.530;9.200;2022-10-15T07:32:48;18.30;99.90
418;DHT22;49;48.530;9.200;2022-10-15T07:35:14;18.40;99.90
418;DHT22;49;48.530;9.200;2022-10-15T07:37:41;18.70;99.90
418;DHT22;49;48.530;9.200;2022-10-15T07:40:11;19.40;99.40
418;DHT22;49;48.530;9.200;2022-10-15T07:42:38;20.00;98.30
418;DHT22;49;48.530;9.200;2022-10-15T07:45:06;19.80;98.80
418;DHT22;49;48.530;9.200;2022-10-15T07:47:33;20.00;98.40
418;DHT22;49;48.530;9.200;2022-10-15T07:50:00;20.30;97.70
418;DHT22;49;48.530;9.200;2022-10-15T07:52:27;20.20;97.90
418;DHT22;49;48.530;9.200;2022-10-15T07:54:54;20.20;97.80
418;DHT22;49;48.530;9.200;2022-10-15T07:57:22;20.60;97.00
418;DHT22;49;48.530;9.200;2022-10-15T07:59:49;20.50;97.00
418;DHT22;49;48.530;9.200;2022-10-15T08:02:54;20.40;97.30
418;DHT22;49;48.530;9.200;2022-10-15T08:05:38;21.00;96.00
418;DHT22;49;48.530;9.200;2022-10-15T08:08:08;20.60;97.20
418;DHT22;49;48.530;9.200;2022-10-15T08:10:52;20.60;96.90
418;DHT22;49;48.530;9.200;2022-10-15T08:16:32;20.30;97.60
418;DHT22;49;48.530;9.200;2022-10-15T08:22:24;20.30;97.70
418;DHT22;49;48.530;9.200;2022-10-15T08:24:57;19.80;98.40
418;DHT22;49;48.530;9.200;2022-10-15T08:27:26;19.90;98.40
418;DHT22;49;48.530;9.200;2022-10-15T08:29:53;19.70;99.30
418;DHT22;49;48.530;9.200;2022-10-15T08:32:21;19.70;99.40
418;DHT22;49;48.530;9.200;2022-10-15T08:35:18;19.70;98.50
418;DHT22;49;48.530;9.200;2022-10-15T08:37:45;19.40;99.30
418;DHT22;49;48.530;9.200;2022-10-15T08:40:12;19.50;99.10
418;DHT22;49;48.530;9.200;2022-10-15T08:42:41;19.80;98.90
418;DHT22;49;48.530;9.200;2022-10-15T08:45:12;20.20;98.20
418;DHT22;49;48.530;9.200;2022-10-15T08:47:45;20.70;97.20
418;DHT22;49;48.530;9.200;2022-10-15T08:50:21;21.40;95.80
418;DHT22;49;48.530;9.200;2022-10-15T08:52:53;21.70;94.60
418;DHT22;49;48.530;9.200;2022-10-15T08:55:22;21.70;94.70
418;DHT22;49;48.530;9.200;2022-10-15T08:57:53;21.70;94.40
418;DHT22;49;48.530;9.200;2022-10-15T09:00:26;22.30;93.40
418;DHT22;49;48.530;9.200;2022-10-15T09:03:01;22.50;93.10
418;DHT22;49;48.530;9.200;2022-10-15T09:05:37;22.30;93.50
418;DHT22;49;48.530;9.200;2022-10-15T09:08:17;22.60;92.20
418;DHT22;49;48.530;9.200;2022-10-15T09:10:49;22.20;93.50
418;DHT22;49;48.530;9.200;2022-10-15T09:13:25;22.10;93.30
418;DHT22;49;48.530;9.200;2022-10-15T09:15:59;22.00;93.90
418;DHT22;49;48.530;9.200;2022-10-15T09:18:31;21.90;92.60
418;DHT22;49;48.530;9.200;2022-10-15T09:21:00;21.30;93.10
418;DHT22;49;48.530;9.200;2022-10-15T09:23:28;21.10;93.90
418;DHT22;49;48.530;9.200;2022-10-15T09:26:01;21.00;93.70
418;DHT22;49;48.530;9.200;2022-10-15T09:28:37;21.30;93.50
418;DHT22;49;48.530;9.200;2022-10-15T09:31:06;20.70;94.20
418;DHT22;49;48.530;9.200;2022-10-15T09:33:37;20.50;94.90
418;DHT22;49;48.530;9.200;2022-10-15T09:36:13;20.70;94.70
418;DHT22;49;48.530;9.200;2022-10-15T09:38:48;20.80;94.30
418;DHT22;49;48.530;9.200;2022-10-15T09:41:24;21.30;93.20
418;DHT22;49;48.530;9.200;2022-10-15T09:43:56;21.40;93.10
418;DHT22;49;48.530;9.200;2022-10-15T09:46:24;21.60;92.40
418;DHT22;49;48.530;9.200;2022-10-15T09:49:00;22.00;91.10
418;DHT22;49;48.530;9.200;2022-10-15T09:51:32;21.40;91.60
418;DHT22;49;48.530;9.200;2022-10-15T09:54:06;21.40;91.70
418;DHT22;49;48.530;9.200;2022-10-15T09:56:37;21.20;91.80
418;DHT22;49;48.530;9.200;2022-10-15T09:59:05;20.70;92.30
418;DHT22;49;48.530;9.200;2022-10-15T10:01:32;20.50;92.40
418;DHT22;49;48.530;9.200;2022-10-15T10:04:13;20.50;93.00
418;DHT22;49;48.530;9.200;2022-10-15T10:06:44;21.10;92.20
418;DHT22;49;48.530;9.200;2022-10-15T10:09:16;21.40;92.30
418;DHT22;49;48.530;9.200;2022-10-15T10:11:47;21.10;92.10
418;DHT22;49;48.530;9.200;2022-10-15T10:14:24;21.20;90.60
418;DHT22;49;48.530;9.200;2022-10-15T10:17:07;20.70;92.20
418;DHT22;49;48.530;9.200;2022-10-15T10:19:35;20.60;91.70
418;DHT22;49;48.530;9.200;2022-10-15T10:22:10;20.30;91.80
418;DHT22;49;48.530;9.200;2022-10-15T10:24:38;20.50;91.90
418;DHT22;49;48.530;9.200;2022-10-15T10:27:20;20.40;91.70
418;DHT22;49;48.530;9.200;2022-10-15T10:29:52;20.40;92.40
418;DHT22;49;48.530;9.200;2022-10-15T10:32:21;20.90;91.50
418;DHT22;49;48.530;9.200;2022-10-15T10:34:50;21.40;91.40
418;DHT22;49;48.530;9.200;2022-10-15T10:37:18;21.70;89.60
418;DHT22;49;48.530;9.200;2022-10-15T10:39:51;21.80;88.20
418;DHT22;49;48.530;9.200;2022-10-15T10:42:25;21.60;90.00
418;DHT22;49;48.530;9.200;2022-10-15T10:44:53;21.80;90.00
418;DHT22;49;48.530;9.200;2022-10-15T10:47:21;21.30;89.10
418;DHT22;49;48.530;9.200;2022-10-15T10:49:51;20.90;90.40
418;DHT22;49;48.530;9.200;2022-10-15T10:52:21;21.00;90.90
418;DHT22;49;48.530;9.200;2022-10-15T10:54:54;21.40;89.50
418;DHT22;49;48.530;9.200;2022-10-15T10:57:31;21.80;89.40
418;DHT22;49;48.530;9.200;2022-10-15T10:59:59;22.20;85.10
418;DHT22;49;48.530;9.200;2022-10-15T11:02:28;22.50;84.30
418;DHT22;49;48.530;9.200;2022-10-15T11:04:58;22.60;82.60
418;DHT22;49;48.530;9.200;2022-10-15T11:07:29;22.10;84.70
418;DHT22;49;48.530;9.200;2022-10-15T11:10:02;22.30;85.70
418;DHT22;49;48.530;9.200;2022-10-15T11:12:57;22.30;81.30
418;DHT22;49;48.530;9.200;2022-10-15T11:15:33;21.70;82.70
418;DHT22;49;48.530;9.200;2022-10-15T11:18:26;21.40;85.40
418;DHT22;49;48.530;9.200;2022-10-15T11:21:12;21.40;84.30
418;DHT22;49;48.530;9.200;2022-10-15T11:24:01;21.40;87.20
418;DHT22;49;48.530;9.200;2022-10-15T11:26:39;21.80;85.70
418;DHT22;49;48.530;9.200;2022-10-15T11:29:12;22.00;82.90
418;DHT22;49;48.530;9.200;2022-10-15T11:31:48;21.70;83.50
418;DHT22;49;48.530;9.200;2022-10-15T11:34:27;21.50;83.70
418;DHT22;49;48.530;9.200;2022-10-15T11:37:08;21.40;85.10
418;DHT22;49;48.530;9.200;2022-10-15T11:39:52;21.70;83.80
418;DHT22;49;48.530;9.200;2022-10-15T11:42:24;21.90;82.40
418;DHT22;49;48.530;9.200;2022-10-15T11:45:06;22.40;82.00
418;DHT22;49;48.530;9.200;2022-10-15T11:47:44;22.50;80.90
418;DHT22;49;48.530;9.200;2022-10-15T11:50:20;22.60;82.70
418;DHT22;49;48.530;9.200;2022-10-15T11:53:07;22.30;80.30
418;DHT22;49;48.530;9.200;2022-10-15T11:55:40;21.30;83.70
418;DHT22;49;48.530;9.200;2022-10-15T11:58:12;21.00;85.90
418;DHT22;49;48.530;9.200;2022-10-15T12:00:44;21.50;82.30
418;DHT22;49;48.530;9.200;2022-10-15T12:03:15;21.30;83.20
418;DHT22;49;48.530;9.200;2022-10-15T12:05:47;21.30;85.00
418;DHT22;49;48.530;9.200;2022-10-15T12:08:17;22.20;83.30
418;DHT22;49;48.530;9.200;2022-10-15T12:10:58;23.20;76.90
418;DHT22;49;48.530;9.200;2022-10-15T12:13:33;23.10;75.40
418;DHT22;49;48.530;9.200;2022-10-15T12:16:12;22.40;78.40
418;DHT22;49;48.530;9.200;2022-10-15T12:18:44;22.50;77.60
418;DHT22;49;48.530;9.200;2022-10-15T12:21:35;22.60;76.50
418;DHT22;49;48.530;9.200;2022-10-15T12:24:14;22.10;79.70
418;DHT22;49;48.530;9.200;2022-10-15T12:26:53;22.30;79.10
418;DHT22;49;48.530;9.200;2022-10-15T12:29:29;22.40;77.80
418;DHT22;49;48.530;9.200;2022-10-15T12:31:55;22.30;79.60
418;DHT22;49;48.530;9.200;2022-10-15T12:34:28;22.90;78.20
418;DHT22;49;48.530;9.200;2022-10-15T12:37:00;22.70;77.20
418;DHT22;49;48.530;9.200;2022-10-15T12:39:28;22.30;77.60
418;DHT22;49;48.530;9.200;2022-10-15T12:41:58;22.80;75.10
418;DHT22;49;48.530;9.200;2022-10-15T12:44:27;23.30;70.80
418;DHT22;49;48.530;9.200;2022-10-15T12:46:55;22.90;73.60
418;DHT22;49;48.530;9.200;2022-10-15T12:49:44;23.10;74.10
418;DHT22;49;48.530;9.200;2022-10-15T12:55:22;23.40;72.60
418;DHT22;49;48.530;9.200;2022-10-15T12:57:53;23.40;68.80
418;DHT22;49;48.530;9.200;2022-10-15T13:00:35;23.30;68.70
418;DHT22;49;48.530;9.200;2022-10-15T13:03:25;22.60;72.30
418;DHT22;49;48.530;9.200;2022-10-15T13:05:55;21.90;75.20
418;DHT22;49;48.530;9.200;2022-10-15T13:08:43;21.90;76.50
418;DHT22;49;48.530;9.200;2022-10-15T13:11:18;21.90;78.60
418;DHT22;49;48.530;9.200;2022-10-15T13:13:49;22.30;76.70
418;DHT22;49;48.530;9.200;2022-10-15T13:16:16;22.40;74.70
418;DHT22;49;48.530;9.200;2022-10-15T13:18:48;22.40;73.60
418;DHT22;49;48.530;9.200;2022-10-15T13:21:16;22.10;76.70
418;DHT22;49;48.530;9.200;2022-10-15T13:23:47;22.00;74.40
418;DHT22;49;48.530;9.200;2022-10-15T13:26:19;22.10;75.50
418;DHT22;49;48.530;9.200;2022-10-15T13:28:49;22.10;74.50
418;DHT22;49;48.530;9.200;2022-10-15T13:31:21;22.30;74.70
418;DHT22;49;48.530;9.200;2022-10-15T13:33:50;22.90;74.20
418;DHT22;49;48.530;9.200;2022-10-15T13:36:21;22.90;71.60
418;DHT22;49;48.530;9.200;2022-10-15T13:38:55;22.00;75.90
418;DHT22;49;48.530;9.200;2022-10-15T13:41:25;21.80;75.60
418;DHT22;49;48.530;9.200;2022-10-15T13:43:54;21.60;77.70
418;DHT22;49;48.530;9.200;2022-10-15T13:46:24;21.90;77.70
418;DHT22;49;48.530;9.200;2022-10-15T13:48:56;21.60;79.10
418;DHT22;49;48.530;9.200;2022-10-15T13:51:33;22.00;77.30
418;DHT22;49;48.530;9.200;2022-10-15T13:54:01;22.00;77.70
418;DHT22;49;48.530;9.200;2022-10-15T13:56:33;22.30;77.10
418;DHT22;49;48.530;9.200;2022-10-15T13:59:02;22.60;76.00
418;DHT22;49;48.530;9.200;2022-10-15T14:01:31;22.90;77.40
418;DHT22;49;48.530;9.200;2022-10-15T14:04:01;23.10;76.40
418;DHT22;49;48.530;9.200;2022-10-15T14:06:29;22.90;73.70
418;DHT22;49;48.530;9.200;2022-10-15T14:08:59;22.30;79.30
418;DHT22;49;48.530;9.200;2022-10-15T14:11:34;22.20;80.30
418;DHT22;49;48.530;9.200;2022-10-15T14:14:26;21.70;84.10
418;DHT22;49;48.530;9.200;2022-10-15T14:16:54;21.60;85.00
418;DHT22;49;48.530;9.200;2022-10-15T14:19:23;21.80;83.20
418;DHT22;49;48.530;9.200;2022-10-15T14:21:54;21.90;81.60
418;DHT22;49;48.530;9.200;2022-10-15T14:24:23;21.70;82.20
418;DHT22;49;48.530;9.200;2022-10-15T14:26:52;21.40;82.40
418;DHT22;49;48.530;9.200;2022-10-15T14:29:24;21.20;84.20
418;DHT22;49;48.530;9.200;2022-10-15T14:31:52;21.20;84.10
418;DHT22;49;48.530;9.200;2022-10-15T14:34:29;21.50;82.90
418;DHT22;49;48.530;9.200;2022-10-15T14:36:56;21.70;80.70
418;DHT22;49;48.530;9.200;2022-10-15T14:39:29;22.00;79.10
418;DHT22;49;48.530;9.200;2022-10-15T14:42:00;21.50;81.10
418;DHT22;49;48.530;9.200;2022-10-15T14:44:41;21.10;82.70
418;DHT22;49;48.530;9.200;2022-10-15T14:47:18;21.60;79.60
418;DHT22;49;48.530;9.200;2022-10-15T14:49:46;21.00;81.20
418;DHT22;49;48.530;9.200;2022-10-15T14:52:15;21.10;81.00
418;DHT22;49;48.530;9.200;2022-10-15T14:54:46;21.30;80.50
418;DHT22;49;48.530;9.200;2022-10-15T14:57:18;21.40;79.30
418;DHT22;49;48.530;9.200;2022-10-15T14:59:48;21.20;81.10
418;DHT22;49;48.530;9.200;2022-10-15T15:02:18;20.80;83.00
418;DHT22;49;48.530;9.200;2022-10-15T15:04:51;21.30;80.80
418;DHT22;49;48.530;9.200;2022-10-15T15:07:30;21.40;80.50
418;DHT22;49;48.530;9.200;2022-10-15T15:09:57;21.40;81.30
418;DHT22;49;48.530;9.200;2022-10-15T15:12:25;21.80;78.00
418;DHT22;49;48.530;9.200;2022-10-15T15:14:54;22.00;77.60
418;DHT22;49;48.530;9.200;2022-10-15T15:17:22;21.80;78.10
418;DHT22;49;48.530;9.200;2022-10-15T15:19:50;21.50;79.00
418;DHT22;49;48.530;9.200;2022-10-15T15:22:20;21.40;79.20
418;DHT22;49;48.530;9.200;2022-10-15T15:24:49;21.40;80.30
418;DHT22;49;48.530;9.200;2022-10-15T15:27:27;21.20;80.60
418;DHT22;49;48.530;9.200;2022-10-15T15:29:56;21.30;81.10
418;DHT22;49;48.530;9.200;2022-10-15T15:32:23;21.50;80.40
418;DHT22;49;48.530;9.200;2022-10-15T15:34:51;21.40;80.20
418;DHT22;49;48.530;9.200;2022-10-15T15:37:20;21.30;80.30
418;DHT22;49;48.530;9.200;2022-10-15T15:39:48;21.20;80.90
418;DHT22;49;48.530;9.200;2022-10-15T15:42:18;21.00;81.70
418;DHT22;49;48.530;9.200;2022-10-15T15:44:45;21.10;81.80
418;DHT22;49;48.530;9.200;2022-10-15T15:47:14;21.20;81.90
418;DHT22;49;48.530;9.200;2022-10-15T15:49:41;21.90;78.30
418;DHT22;49;48.530;9.200;2022-10-15T15:52:10;22.30;75.70
418;DHT22;49;48.530;9.200;2022-10-15T15:54:38;22.70;73.20
418;DHT22;49;48.530;9.200;2022-10-15T15:57:05;22.70;73.10
418;DHT22;49;48.530;9.200;2022-10-15T15:59:32;22.60;73.10
418;DHT22;49;48.530;9.200;2022-10-15T16:01:59;22.10;74.50
418;DHT22;49;48.530;9.200;2022-10-15T16:04:31;21.80;76.40
418;DHT22;49;48.530;9.200;2022-10-15T16:06:57;21.40;79.50
418;DHT22;49;48.530;9.200;2022-10-15T16:09:26;21.20;80.70
418;DHT22;49;48.530;9.200;2022-10-15T16:11:52;21.10;82.10
418;DHT22;49;48.530;9.200;2022-10-15T16:14:21;21.10;82.60
418;DHT22;49;48.530;9.200;2022-10-15T16:24:11;21.60;78.20
418;DHT22;49;48.530;9.200;2022-10-15T16:26:56;21.60;77.70
418;DHT22;49;48.530;9.200;2022-10-15T16:29:23;21.20;80.90
418;DHT22;49;48.530;9.200;2022-10-15T16:31:50;21.60;78.90
418;DHT22;49;48.530;9.200;2022-10-15T16:34:20;21.50;79.00
418;DHT22;49;48.530;9.200;2022-10-15T16:36:56;21.30;80.50
418;DHT22;49;48.530;9.200;2022-10-15T16:39:26;21.10;81.40
418;DHT22;49;48.530;9.200;2022-10-15T16:42:16;21.20;81.10
418;DHT22;49;48.530;9.200;2022-10-15T16:44:45;21.60;79.30
418;DHT22;49;48.530;9.200;2022-10-15T16:47:12;21.20;81.20
418;DHT22;49;48.530;9.200;2022-10-15T16:49:41;21.00;82.40
418;DHT22;49;48.530;9.200;2022-10-15T16:52:10;21.10;83.00
418;DHT22;49;48.530;9.200;2022-10-15T16:54:37;21.50;80.70
418;DHT22;49;48.530;9.200;2022-10-15T16:57:04;21.60;80.00
418;DHT22;49;48.530;9.200;2022-10-15T16:59:33;21.60;79.70
418;DHT22;49;48.530;9.200;2022-10-15T17:02:21;21.00;82.20
418;DHT22;49;48.530;9.200;2022-10-15T17:04:48;20.90;83.00
418;DHT22;49;48.530;9.200;2022-10-15T17:07:16;20.90;83.20
418;DHT22;49;48.530;9.200;2022-10-15T17:09:43;20.80;83.80
418;DHT22;49;48.530;9.200;2022-10-15T17:12:12;20.50;85.60
418;DHT22;49;48.530;9.200;2022-10-15T17:14:39;20.50;86.40
418;DHT22;49;48.530;9.200;2022-10-15T17:17:06;20.40;86.30
418;DHT22;49;48.530;9.200;2022-10-15T17:20:12;20.30;87.30
418;DHT22;49;48.530;9.200;2022-10-15T17:26:04;20.20;88.00
418;DHT22;49;48.530;9.200;2022-10-15T17:28:32;20.20;87.50
418;DHT22;49;48.530;9.200;2022-10-15T17:31:04;20.10;87.80
418;DHT22;49;48.530;9.200;2022-10-15T17:33:31;20.40;87.10
418;DHT22;49;48.530;9.200;2022-10-15T17:36:01;20.70;85.40